Time;durP1;ratioP1;P1;durP2;ratioP2;P2;SDS_P1;SDS_P2;PMS_P1;PMS_P2;Temp;Humidity;BMP_temperature;BMP_pressure;BME280_temperature;BME280_humidity;BME280_pressure;Samples;Min_cycle;Max_cycle;Signal;HPM_P1;HPM_P2
2021/10/29 04:51:02;;;;;;;37.23;21.07;;;;;;;6.77;98.05;101282.13;1752811;78;22528;-34
2021/10/29 04:53:38;;;;;;;44.23;21.85;;;;;;;6.68;97.31;101291.84;1665829;81;21089;-39
2021/10/29 04:56:05;;;;;;;37.88;20.23;;;;;;;6.65;97.44;101293.91;1722665;81;21550;-38
2021/10/29 04:58:40;;;;;;;37.93;21.93;;;;;;;6.65;97.62;101295.64;1657176;85;21108;-34
2021/10/29 05:01:14;;;;;;;45.78;24.25;;;;;;;6.65;97.88;101300.84;1606220;85;21155;-38
2021/10/29 05:03:43;;;;;;;33.98;21.93;;;;;;;6.67;98.09;101291.39;1692981;82;21104;-35
2021/10/29 05:06:13;;;;;;;35.50;19.37;;;;;;;6.67;98.05;101291.39;1716487;82;21073;-40
2021/10/29 05:09:08;;;;;;;32.03;19.00;;;;;;;6.68;97.93;101294.45;1664656;83;21111;-40
2021/10/29 05:11:38;;;;;;;29.10;18.82;;;;;;;6.66;97.44;101300.88;1666324;82;21127;-40
2021/10/29 05:14:07;;;;;;;29.37;17.52;;;;;;;6.63;96.90;101303.40;1695807;82;21053;-40
2021/10/29 05:16:37;;;;;;;30.37;18.90;;;;;;;6.55;96.14;101298.77;1689799;82;21216;-39
2021/10/29 05:19:06;;;;;;;29.48;17.48;;;;;;;6.40;95.91;101302.66;1689908;82;21038;-36
2021/10/29 05:21:40;;;;;;;32.33;19.10;;;;;;;6.31;95.91;101298.86;1681618;82;21093;-40
2021/10/29 05:24:09;;;;;;;37.48;19.40;;;;;;;6.23;95.73;101310.31;1657726;82;21613;-37
2021/10/29 05:26:38;;;;;;;25.48;17.30;;;;;;;6.18;95.80;101313.58;1673065;83;22854;-36
2021/10/29 05:29:08;;;;;;;33.92;19.35;;;;;;;6.14;95.83;101321.26;1684645;81;21360;-38
2021/10/29 05:31:41;;;;;;;67.17;18.17;;;;;;;6.10;95.73;101323.72;1679209;80;21160;-40
2021/10/29 05:34:20;;;;;;;;;;;;;;;6.06;96.02;101328.34;1692045;82;21102;-36
2021/10/29 05:36:48;;;;;;;39.45;20.82;;;;;;;6.05;96.19;101330.47;1676760;83;20175;-35
2021/10/29 05:39:16;;;;;;;28.62;18.98;;;;;;;6.03;96.70;101333.41;1707975;81;21616;-35
2021/10/29 05:41:49;;;;;;;50.03;18.82;;;;;;;6.05;97.04;101340.87;1657679;82;21666;-34
2021/10/29 05:44:19;;;;;;;33.23;17.62;;;;;;;6.06;97.34;101346.11;1664149;83;21091;-38
2021/10/29 05:46:47;;;;;;;30.30;19.55;;;;;;;6.05;96.86;101344.34;1684748;81;21081;-38
2021/10/29 05:49:15;;;;;;;52.93;22.75;;;;;;;6.00;96.62;101343.72;1712096;82;21062;-35
2021/10/29 05:54:36;;;;;;;25.08;16.25;;;;;;;6.03;96.87;101345.10;1715700;81;21097;-38
2021/10/29 05:56:48;;;;;;;30.77;18.57;;;;;;;6.10;96.82;101360.10;1715059;81;21553;-38
2021/10/29 05:59:15;;;;;;;28.57;17.80;;;;;;;6.06;96.06;101352.60;1672049;83;21088;-35
2021/10/29 06:01:44;;;;;;;40.17;23.87;;;;;;;6.06;96.06;101352.60;1698864;82;23369;-34
2021/10/29 06:04:13;;;;;;;41.28;23.50;;;;;;;6.12;96.32;101350.22;1676793;82;21163;-38
2021/10/29 06:09:11;;;;;;;39.98;21.95;;;;;;;6.29;96.91;101346.90;1688400;82;21087;-41
2021/10/29 06:11:39;;;;;;;26.27;18.42;;;;;;;6.41;97.10;101347.73;1669642;80;21399;-38
2021/10/29 06:14:07;;;;;;;38.35;20.48;;;;;;;6.51;97.15;101353.70;1703471;81;21521;-37
2021/10/29 06:16:35;;;;;;;34.27;20.80;;;;;;;6.62;97.16;101354.06;1711608;81;21820;-38
2021/10/29 06:19:03;;;;;;;33.98;21.45;;;;;;;6.73;97.36;101353.13;1683517;81;21946;-38
2021/10/29 06:21:43;;;;;;;33.48;20.77;;;;;;;6.86;97.55;101360.05;1642242;84;21621;-36
2021/10/29 06:24:09;;;;;;;28.90;19.42;;;;;;;7.02;97.78;101364.03;1677982;81;21994;-40
2021/10/29 06:26:55;;;;;;;33.02;23.52;;;;;;;7.20;98.20;101359.39;1676269;80;21145;-37
2021/10/29 06:32:00;;;;;;;31.73;21.55;;;;;;;7.58;99.19;101365.26;1739720;80;21134;-40
2021/10/29 06:34:38;;;;;;;49.45;29.40;;;;;;;7.77;99.53;101362.75;1722053;82;21176;-36
2021/10/29 06:37:16;;;;;;;43.17;27.85;;;;;;;7.96;99.83;101365.93;1711879;81;21166;-36
2021/10/29 06:39:47;;;;;;;35.08;23.18;;;;;;;8.15;99.75;101362.09;1713724;82;21649;-40
2021/10/29 06:42:21;;;;;;;31.68;21.55;;;;;;;8.34;99.53;101363.45;1669983;82;21158;-36
2021/10/29 06:45:01;;;;;;;34.78;22.40;;;;;;;8.50;99.29;101368.67;1718730;82;21544;-40
2021/10/29 06:59:12;;;;;;;34.70;21.60;;;;;;;8.95;98.84;101379.37;1719531;81;21291;-38
2021/10/29 07:00:41;;;;;;;31.02;20.62;;;;;;;9.46;98.60;101388.36;1695695;82;21058;-39
